Time;durP1;ratioP1;P1;durP2;ratioP2;P2;SDS_P1;SDS_P2;PMS_P1;PMS_P2;Temp;Humidity;BMP_temperature;BMP_pressure;BME280_temperature;BME280_humidity;BME280_pressure;Samples;Min_cycle;Max_cycle;Signal;HPM_P1;HPM_P2
2022/01/03 00:01:20;;;;;;;21.90;16.17;;;;;;;;;;4754216;29;20024;-79
2022/01/03 00:03:47;;;;;;;21.48;15.20;;;;;;;;;;4752326;29;20040;-80
2022/01/03 00:06:14;;;;;;;22.55;16.10;;;;;;;;;;4742132;29;20869;-79
2022/01/03 00:08:44;;;;;;;20.25;14.90;;;;;;;;;;4740875;29;20028;-79
2022/01/03 00:11:15;;;;;;;20.08;14.13;;;;;;;;;;4738513;29;20032;-78
2022/01/03 00:13:46;;;;;;;20.67;14.80;;;;;;;;;;4737460;29;20779;-79
2022/01/03 00:16:13;;;;;;;18.30;13.52;;;;;;;;;;4736672;29;20048;-78
2022/01/03 00:18:40;;;;;;;20.23;13.93;;;;;;;;;;4743157;29;20043;-79
2022/01/03 00:21:17;;;;;;;20.05;14.25;;;;;;;;;;4733710;29;20028;-80
2022/01/03 00:23:49;;;;;;;18.50;12.95;;;;;;;;;;4738731;29;21356;-80
2022/01/03 00:26:19;;;;;;;20.77;14.43;;;;;;;;;;4733449;29;20036;-79
2022/01/03 00:29:12;;;;;;;19.98;14.05;;;;;;;;;;4734624;29;20043;-82
2022/01/03 00:31:39;;;;;;;18.95;13.70;;;;;;;;;;4731154;29;20374;-81
2022/01/03 00:34:07;;;;;;;20.23;13.95;;;;;;;;;;4729716;29;20043;-78
2022/01/03 00:36:34;;;;;;;19.92;13.55;;;;;;;;;;4750080;29;20032;-79
2022/01/03 00:39:00;;;;;;;18.13;11.80;;;;;;;;;;4752388;29;20036;-81
2022/01/03 00:41:26;;;;;;;;;;;;;;;;;;4734571;29;20115;-76
2022/01/03 00:43:54;;;;;;;16.85;10.15;;;;;;;;;;4743275;29;19919;-79
2022/01/03 00:46:20;;;;;;;17.90;11.48;;;;;;;;;;4754314;29;20538;-78
2022/01/03 00:48:47;;;;;;;18.05;11.45;;;;;;;;;;4759395;29;20036;-78
2022/01/03 00:51:21;;;;;;;16.63;10.68;;;;;;;;;;4751487;29;20035;-77
2022/01/03 00:53:48;;;;;;;17.08;10.50;;;;;;;;;;4729651;29;20040;-78
2022/01/03 00:56:14;;;;;;;;;;;;;;;;;;4751313;29;20024;-77
2022/01/03 00:58:48;;;;;;;14.95;9.00;;;;;;;;;;4735786;29;20065;-78
2022/01/03 01:01:15;;;;;;;17.67;10.82;;;;;;;;;;4736698;29;20028;-77
2022/01/03 01:03:44;;;;;;;16.05;10.25;;;;;;;;;;4739755;29;20071;-80
2022/01/03 01:06:11;;;;;;;17.02;10.45;;;;;;;;;;4731825;29;20755;-78
2022/01/03 01:08:37;;;;;;;;;;;;;;;;;;4736243;29;20070;-78
2022/01/03 01:11:08;;;;;;;17.73;10.63;;;;;;;;;;4749374;29;19919;-78
2022/01/03 01:13:35;;;;;;;17.48;10.05;;;;;;;;;;4738165;29;20119;-78
2022/01/03 01:16:09;;;;;;;16.63;9.75;;;;;;;;;;4752335;29;20471;-78
2022/01/03 01:18:37;;;;;;;17.65;10.43;;;;;;;;;;4742684;29;20060;-78
2022/01/03 01:21:04;;;;;;;16.23;10.48;;;;;;;;;;4757663;29;20776;-82
2022/01/03 01:23:31;;;;;;;17.48;10.20;;;;;;;;;;4762477;29;20429;-78
2022/01/03 01:28:49;;;;;;;16.98;11.15;;;;;;;;;;4757605;29;20142;-81
2022/01/03 01:31:17;;;;;;;17.83;10.80;;;;;;;;;;4765157;29;20036;-79
2022/01/03 01:33:45;;;;;;;16.13;10.05;;;;;;;;;;4751105;29;20042;-80
2022/01/03 01:36:12;;;;;;;16.92;11.18;;;;;;;;;;4765071;29;20086;-78
2022/01/03 01:38:39;;;;;;;18.35;11.48;;;;;;;;;;4753500;29;20728;-78
2022/01/03 01:41:06;;;;;;;18.05;11.52;;;;;;;;;;4745540;29;20024;-79
2022/01/03 01:43:39;;;;;;;17.38;10.85;;;;;;;;;;4733520;29;20047;-79
2022/01/03 01:46:10;;;;;;;18.42;11.57;;;;;;;;;;4726235;29;20525;-80
2022/01/03 01:48:38;;;;;;;18.67;11.68;;;;;;;;;;4744641;29;20614;-79
2022/01/03 01:51:05;;;;;;;16.75;10.75;;;;;;;;;;4726879;29;20070;-80
2022/01/03 01:53:38;;;;;;;16.73;10.95;;;;;;;;;;4726283;29;20023;-79
2022/01/03 01:56:07;;;;;;;17.33;10.82;;;;;;;;;;4724953;29;20039;-79
2022/01/03 01:58:37;;;;;;;16.65;10.57;;;;;;;;;;4725011;29;20758;-79
2022/01/03 02:01:08;;;;;;;17.00;11.35;;;;;;;;;;4729243;29;20040;-79
2022/01/03 02:03:50;;;;;;;20.23;12.43;;;;;;;;;;4746933;29;20952;-77
2022/01/03 02:06:46;;;;;;;17.23;11.48;;;;;;;;;;4734016;29;21522;-80
2022/01/03 02:09:22;;;;;;;15.02;9.85;;;;;;;;;;4703671;29;20045;-78
2022/01/03 02:11:51;;;;;;;14.13;9.60;;;;;;;;;;4701045;29;20072;-79
2022/01/03 02:14:18;;;;;;;16.13;10.73;;;;;;;;;;4646340;29;1514011;-78
2022/01/03 02:16:44;;;;;;;14.55;9.27;;;;;;;;;;4701706;29;20046;-78
2022/01/03 02:19:12;;;;;;;15.57;9.60;;;;;;;;;;4733121;29;20041;-78
2022/01/03 02:21:38;;;;;;;13.43;9.20;;;;;;;;;;4846432;29;20040;-78
2022/01/03 02:24:04;;;;;;;;;;;;;;;;;;4862904;29;20582;-78
2022/01/03 02:26:31;;;;;;;15.70;10.15;;;;;;;;;;4864614;29;19938;-78
2022/01/03 02:28:57;;;;;;;15.65;9.65;;;;;;;;;;4845553;29;20032;-79
2022/01/03 02:31:25;;;;;;;14.35;8.68;;;;;;;;;;4865583;29;20043;-77
2022/01/03 02:33:52;;;;;;;13.38;8.60;;;;;;;;;;4863834;29;20064;-78
2022/01/03 02:36:18;;;;;;;;;;;;;;;;;;4863530;29;20035;-78
2022/01/03 02:38:44;;;;;;;13.98;8.80;;;;;;;;;;4862260;29;19947;-78
2022/01/03 02:41:10;;;;;;;14.05;8.68;;;;;;;;;;4861415;29;20037;-78
2022/01/03 02:43:37;;;;;;;13.77;8.65;;;;;;;;;;4850196;29;20147;-79
2022/01/03 02:46:03;;;;;;;;;;;;;;;;;;4885335;29;20062;-78
2022/01/03 02:48:29;;;;;;;13.00;8.35;;;;;;;;;;4901928;29;19919;-77
2022/01/03 02:50:55;;;;;;;;;;;;;;;;;;4882739;29;20816;-80
2022/01/03 02:53:22;;;;;;;14.35;8.95;;;;;;;;;;4902616;29;19919;-81
2022/01/03 02:55:49;;;;;;;14.25;9.18;;;;;;;;;;4886772;29;20027;-77
2022/01/03 02:58:15;;;;;;;15.70;10.40;;;;;;;;;;4902935;29;20444;-78
2022/01/03 03:00:48;;;;;;;13.95;8.90;;;;;;;;;;4902095;29;20039;-77
2022/01/03 03:03:18;;;;;;;14.73;9.52;;;;;;;;;;4888701;29;20035;-80
2022/01/03 03:05:44;;;;;;;13.43;8.73;;;;;;;;;;4900071;29;20067;-80
2022/01/03 03:08:11;;;;;;;13.10;8.77;;;;;;;;;;4901310;29;20024;-78
2022/01/03 03:10:37;;;;;;;14.85;9.20;;;;;;;;;;4906907;29;20714;-77
2022/01/03 03:13:04;;;;;;;13.65;8.52;;;;;;;;;;4904878;29;20031;-79
2022/01/03 03:15:31;;;;;;;13.75;9.32;;;;;;;;;;4903316;29;20498;-79
2022/01/03 03:17:57;;;;;;;13.15;8.48;;;;;;;;;;4904607;29;20027;-80
2022/01/03 03:20:23;;;;;;;;;;;;;;;;;;4906647;29;20035;-79
2022/01/03 03:22:50;;;;;;;13.63;8.25;;;;;;;;;;4902726;29;19918;-79
2022/01/03 03:25:18;;;;;;;14.73;9.57;;;;;;;;;;4910929;29;20876;-79
2022/01/03 03:27:47;;;;;;;15.93;8.57;;;;;;;;;;4904793;29;20842;-79
2022/01/03 03:30:32;;;;;;;14.15;8.43;;;;;;;;;;4902951;29;20032;-80
2022/01/03 03:33:07;;;;;;;12.88;8.60;;;;;;;;;;4891492;29;20032;-80
2022/01/03 03:35:33;;;;;;;14.85;9.30;;;;;;;;;;4905344;29;20560;-78
2022/01/03 03:38:00;;;;;;;13.20;8.80;;;;;;;;;;4902073;29;20043;-78
2022/01/03 03:40:26;;;;;;;14.38;9.45;;;;;;;;;;4908002;29;20039;-78
2022/01/03 03:42:53;;;;;;;13.15;9.00;;;;;;;;;;4899445;29;20841;-78
2022/01/03 03:45:19;;;;;;;14.90;9.32;;;;;;;;;;4890914;29;20167;-78
2022/01/03 03:47:45;;;;;;;14.45;9.10;;;;;;;;;;4890156;29;20075;-78
2022/01/03 03:50:12;;;;;;;14.45;9.63;;;;;;;;;;4903831;29;20040;-78
2022/01/03 03:52:38;;;;;;;;;;;;;;;;;;4910252;29;20035;-78
2022/01/03 03:55:05;;;;;;;12.50;8.23;;;;;;;;;;4888750;29;19954;-78
2022/01/03 03:57:31;;;;;;;15.20;9.05;;;;;;;;;;4904712;29;20447;-78
2022/01/03 04:00:00;;;;;;;13.38;8.55;;;;;;;;;;4904724;29;20032;-79
2022/01/03 04:02:27;;;;;;;13.80;7.90;;;;;;;;;;4907109;29;20086;-78
2022/01/03 04:04:53;;;;;;;14.15;8.02;;;;;;;;;;4901673;29;20031;-78
2022/01/03 04:07:19;;;;;;;13.02;8.20;;;;;;;;;;4897468;29;20035;-78
2022/01/03 04:09:45;;;;;;;13.30;8.40;;;;;;;;;;4892505;29;20044;-81
2022/01/03 04:12:11;;;;;;;12.50;7.78;;;;;;;;;;4906704;29;20094;-81
2022/01/03 04:14:37;;;;;;;12.93;7.78;;;;;;;;;;4904410;29;20078;-79
2022/01/03 04:17:04;;;;;;;10.32;6.30;;;;;;;;;;4884863;29;20412;-81
2022/01/03 04:19:30;;;;;;;11.93;7.68;;;;;;;;;;4888510;29;20043;-78
2022/01/03 04:21:56;;;;;;;12.13;7.80;;;;;;;;;;4885385;29;20024;-78
2022/01/03 04:24:22;;;;;;;11.32;6.93;;;;;;;;;;4884149;29;20032;-79
2022/01/03 04:26:49;;;;;;;11.00;6.82;;;;;;;;;;4884757;29;20482;-78
2022/01/03 04:29:15;;;;;;;12.23;6.80;;;;;;;;;;4886552;29;20039;-78
2022/01/03 04:31:41;;;;;;;11.00;6.72;;;;;;;;;;4885858;29;20113;-78
2022/01/03 04:34:08;;;;;;;13.27;6.78;;;;;;;;;;4883497;29;20507;-80
2022/01/03 04:36:34;;;;;;;13.27;6.93;;;;;;;;;;4903182;29;20187;-81
2022/01/03 04:39:01;;;;;;;10.77;6.63;;;;;;;;;;4898104;29;20039;-79
2022/01/03 04:41:27;;;;;;;11.73;6.80;;;;;;;;;;4886072;29;20036;-78
2022/01/03 04:43:53;;;;;;;10.57;6.45;;;;;;;;;;4897575;29;20039;-81
2022/01/03 04:46:19;;;;;;;10.43;5.93;;;;;;;;;;4878964;29;20039;-79
2022/01/03 04:48:46;;;;;;;11.50;6.40;;;;;;;;;;4885900;29;20147;-78
2022/01/03 04:51:12;;;;;;;10.75;5.93;;;;;;;;;;4901924;29;20040;-79
2022/01/03 04:53:40;;;;;;;12.00;6.30;;;;;;;;;;4902353;29;20029;-81
2022/01/03 04:56:08;;;;;;;10.15;5.93;;;;;;;;;;4882773;29;20052;-79
2022/01/03 04:58:34;;;;;;;10.63;6.22;;;;;;;;;;4886548;29;20127;-78
2022/01/03 05:01:00;;;;;;;10.73;6.10;;;;;;;;;;4887679;29;20167;-79
2022/01/03 05:03:26;;;;;;;10.48;6.15;;;;;;;;;;4887229;29;20032;-79
2022/01/03 05:05:52;;;;;;;10.43;5.68;;;;;;;;;;4875178;29;20034;-79
2022/01/03 05:08:19;;;;;;;10.73;6.20;;;;;;;;;;4888904;29;20043;-79
2022/01/03 05:10:45;;;;;;;10.25;6.35;;;;;;;;;;4887572;29;20028;-79
2022/01/03 05:13:11;;;;;;;10.25;6.05;;;;;;;;;;4884493;29;20119;-79
2022/01/03 05:15:37;;;;;;;11.23;6.50;;;;;;;;;;4897844;29;20054;-79
2022/01/03 05:18:03;;;;;;;12.23;6.90;;;;;;;;;;4899407;29;20034;-80
2022/01/03 05:20:30;;;;;;;11.88;7.38;;;;;;;;;;4902609;29;20088;-80
2022/01/03 05:22:56;;;;;;;12.20;7.00;;;;;;;;;;4899634;29;20561;-80
2022/01/03 05:25:22;;;;;;;11.43;6.95;;;;;;;;;;4902557;29;20039;-79
2022/01/03 05:27:49;;;;;;;11.32;7.15;;;;;;;;;;4902401;29;20141;-78
2022/01/03 05:30:15;;;;;;;10.35;6.53;;;;;;;;;;4907147;29;20122;-79
2022/01/03 05:32:41;;;;;;;11.05;6.30;;;;;;;;;;4900342;29;20062;-79
2022/01/03 05:35:08;;;;;;;9.95;5.88;;;;;;;;;;4887075;29;20908;-79
2022/01/03 05:37:34;;;;;;;10.23;5.97;;;;;;;;;;4892316;29;20028;-79
2022/01/03 05:40:00;;;;;;;9.57;5.38;;;;;;;;;;4897706;29;20905;-78
2022/01/03 05:42:26;;;;;;;10.57;5.85;;;;;;;;;;4891984;29;20054;-79
2022/01/03 05:44:52;;;;;;;9.85;5.70;;;;;;;;;;4892392;29;20042;-79
2022/01/03 05:47:19;;;;;;;10.00;5.82;;;;;;;;;;4901421;29;20565;-78
2022/01/03 05:49:48;;;;;;;10.88;6.15;;;;;;;;;;4903824;29;20031;-79
2022/01/03 05:52:14;;;;;;;10.70;6.03;;;;;;;;;;4904696;29;20059;-79
2022/01/03 05:54:43;;;;;;;9.27;5.10;;;;;;;;;;4903263;29;20031;-79
2022/01/03 05:57:11;;;;;;;9.20;5.47;;;;;;;;;;4899143;29;20024;-78
2022/01/03 05:59:38;;;;;;;11.48;5.82;;;;;;;;;;4905117;29;20035;-80
2022/01/03 06:02:06;;;;;;;10.77;5.53;;;;;;;;;;4903204;29;20114;-80
2022/01/03 06:04:52;;;;;;;10.43;5.70;;;;;;;;;;4906264;29;20028;-80
2022/01/03 06:07:24;;;;;;;13.10;6.28;;;;;;;;;;4861548;29;20063;-80
2022/01/03 06:09:50;;;;;;;10.30;6.00;;;;;;;;;;4884553;29;20039;-80
2022/01/03 06:12:17;;;;;;;10.10;5.50;;;;;;;;;;4905247;29;20038;-80
2022/01/03 06:14:50;;;;;;;10.75;5.93;;;;;;;;;;4886007;29;20071;-80
2022/01/03 06:17:18;;;;;;;10.77;5.85;;;;;;;;;;4877347;29;20829;-80
2022/01/03 06:19:45;;;;;;;9.98;5.80;;;;;;;;;;4882131;29;20043;-80
2022/01/03 06:22:13;;;;;;;10.48;5.25;;;;;;;;;;4883952;29;20060;-80
2022/01/03 06:24:40;;;;;;;10.43;5.47;;;;;;;;;;4882832;29;20044;-80
2022/01/03 06:27:08;;;;;;;10.60;6.10;;;;;;;;;;4867908;29;20286;-80
2022/01/03 06:29:35;;;;;;;10.20;5.65;;;;;;;;;;4884154;29;20036;-80
2022/01/03 06:32:03;;;;;;;11.32;6.15;;;;;;;;;;4866553;29;20037;-80
2022/01/03 06:34:30;;;;;;;10.93;6.03;;;;;;;;;;4888813;29;20055;-78
2022/01/03 06:36:57;;;;;;;10.57;6.20;;;;;;;;;;4881219;29;20039;-78
2022/01/03 06:39:26;;;;;;;11.05;5.70;;;;;;;;;;4889809;29;20180;-78
2022/01/03 06:41:53;;;;;;;10.27;5.90;;;;;;;;;;4886539;29;20048;-81
2022/01/03 06:44:23;;;;;;;10.05;6.15;;;;;;;;;;4886184;29;20036;-78
2022/01/03 06:46:51;;;;;;;10.98;6.50;;;;;;;;;;4877052;29;20040;-78
2022/01/03 06:49:20;;;;;;;10.90;6.00;;;;;;;;;;4888931;29;20048;-78
2022/01/03 06:51:48;;;;;;;10.43;6.15;;;;;;;;;;4888460;29;20039;-81
2022/01/03 06:54:16;;;;;;;10.10;6.13;;;;;;;;;;4877547;29;20062;-81
2022/01/03 06:56:42;;;;;;;10.10;6.03;;;;;;;;;;4861026;29;20085;-79
2022/01/03 06:59:11;;;;;;;10.88;5.88;;;;;;;;;;4871244;29;20578;-79
2022/01/03 07:01:38;;;;;;;11.55;6.43;;;;;;;;;;4859942;29;20041;-78
2022/01/03 07:04:07;;;;;;;10.68;6.53;;;;;;;;;;4879502;29;20047;-81
2022/01/03 07:06:36;;;;;;;12.00;6.43;;;;;;;;;;4875091;29;20382;-81
2022/01/03 07:09:05;;;;;;;11.60;6.53;;;;;;;;;;4887318;29;20872;-78
2022/01/03 07:11:33;;;;;;;11.82;5.88;;;;;;;;;;4886225;29;20044;-82
2022/01/03 07:18:56;;;;;;;11.82;7.30;;;;;;;;;;4882811;29;20040;-78
2022/01/03 07:19:42;;;;;;;12.45;8.23;;;;;;;;;;4889897;29;20254;-81
2022/01/03 07:22:21;;;;;;;14.10;8.65;;;;;;;;;;4896993;29;20131;-81
2022/01/03 07:24:47;;;;;;;14.38;9.88;;;;;;;;;;4888329;29;20044;-81
2022/01/03 07:27:16;;;;;;;15.27;9.63;;;;;;;;;;4887483;29;20044;-82
2022/01/03 07:29:43;;;;;;;14.25;9.05;;;;;;;;;;4872199;29;20184;-81
2022/01/03 07:32:12;;;;;;;14.60;9.68;;;;;;;;;;4885823;29;20164;-81
2022/01/03 07:34:40;;;;;;;11.60;7.60;;;;;;;;;;4874013;29;20141;-82
2022/01/03 07:37:08;;;;;;;12.52;8.02;;;;;;;;;;4869722;29;20119;-78
2022/01/03 07:39:37;;;;;;;11.70;7.43;;;;;;;;;;4875019;29;20032;-78
2022/01/03 07:42:05;;;;;;;12.68;7.60;;;;;;;;;;4887720;29;20087;-81
2022/01/03 07:44:32;;;;;;;12.43;7.15;;;;;;;;;;4887767;29;20039;-78
2022/01/03 07:47:01;;;;;;;12.88;7.63;;;;;;;;;;4873901;29;20044;-78
2022/01/03 07:49:28;;;;;;;12.27;7.18;;;;;;;;;;4888848;29;20040;-79
2022/01/03 07:51:56;;;;;;;11.75;7.15;;;;;;;;;;4880673;29;20365;-79
2022/01/03 07:54:23;;;;;;;13.15;6.97;;;;;;;;;;4896200;29;20028;-79
2022/01/03 07:56:51;;;;;;;11.70;7.20;;;;;;;;;;4898685;29;20071;-78
2022/01/03 07:59:19;;;;;;;11.43;7.03;;;;;;;;;;4896075;29;20031;-77
2022/01/03 08:01:50;;;;;;;11.82;6.80;;;;;;;;;;4898571;29;20147;-78
2022/01/03 08:04:17;;;;;;;13.13;7.88;;;;;;;;;;4910458;29;20043;-78
2022/01/03 08:06:45;;;;;;;16.25;10.07;;;;;;;;;;4894506;29;20043;-81
2022/01/03 08:09:13;;;;;;;13.80;8.68;;;;;;;;;;4909798;29;20070;-79
2022/01/03 08:11:41;;;;;;;13.40;8.93;;;;;;;;;;4895369;29;20100;-77
2022/01/03 08:14:13;;;;;;;12.95;9.05;;;;;;;;;;4894243;29;20430;-80
2022/01/03 08:16:42;;;;;;;13.95;8.90;;;;;;;;;;4913628;29;20175;-80
2022/01/03 08:19:09;;;;;;;13.25;7.95;;;;;;;;;;4908392;29;20377;-80
2022/01/03 08:21:37;;;;;;;13.18;8.48;;;;;;;;;;4913853;29;20131;-80
2022/01/03 08:24:05;;;;;;;12.63;8.05;;;;;;;;;;4899844;29;20043;-77
2022/01/03 08:26:35;;;;;;;13.27;7.82;;;;;;;;;;4918526;28;20130;-78
2022/01/03 08:29:05;;;;;;;11.93;8.23;;;;;;;;;;4898053;29;20204;-77
2022/01/03 08:31:37;;;;;;;14.65;9.07;;;;;;;;;;4895880;29;20054;-78
2022/01/03 08:34:04;;;;;;;13.38;9.10;;;;;;;;;;4890106;29;20024;-80
2022/01/03 08:36:32;;;;;;;13.90;9.23;;;;;;;;;;4925549;29;20039;-80
2022/01/03 08:39:02;;;;;;;15.32;9.80;;;;;;;;;;4905591;29;20035;-80
2022/01/03 08:41:29;;;;;;;14.70;8.60;;;;;;;;;;4915672;29;20055;-80
2022/01/03 08:43:56;;;;;;;15.02;8.40;;;;;;;;;;4923706;28;20102;-80
2022/01/03 08:46:26;;;;;;;12.68;7.70;;;;;;;;;;4923485;29;20031;-76
2022/01/03 08:48:54;;;;;;;14.63;8.55;;;;;;;;;;4919383;28;20035;-77
2022/01/03 08:51:22;;;;;;;12.65;8.40;;;;;;;;;;4904348;29;20032;-80
2022/01/03 08:53:53;;;;;;;14.63;8.80;;;;;;;;;;4909146;29;20199;-80
2022/01/03 08:56:20;;;;;;;15.32;9.20;;;;;;;;;;4909213;29;20048;-80
2022/01/03 08:58:46;;;;;;;;;;;;;;;;;;4897188;29;21307;-79
2022/01/03 09:01:14;;;;;;;17.33;9.60;;;;;;;;;;4896151;29;19922;-80
2022/01/03 09:03:50;;;;;;;13.50;9.38;;;;;;;;;;4909012;29;20023;-81
2022/01/03 09:06:20;;;;;;;16.05;10.15;;;;;;;;;;4897948;29;20043;-81
2022/01/03 09:08:47;;;;;;;14.85;9.20;;;;;;;;;;4887442;29;20028;-81
2022/01/03 09:11:17;;;;;;;13.85;8.80;;;;;;;;;;4894183;29;20127;-81
2022/01/03 09:13:49;;;;;;;14.98;10.35;;;;;;;;;;4878244;29;20399;-78
2022/01/03 09:16:18;;;;;;;16.60;10.98;;;;;;;;;;4855248;29;20044;-76
2022/01/03 09:18:47;;;;;;;15.27;9.68;;;;;;;;;;4888568;29;20107;-76
2022/01/03 09:21:13;;;;;;;15.10;10.75;;;;;;;;;;4902366;29;20028;-76
2022/01/03 09:23:47;;;;;;;15.65;11.02;;;;;;;;;;4880354;29;20050;-76
2022/01/03 09:29:12;;;;;;;14.35;10.50;;;;;;;;;;4890680;29;20087;-75
2022/01/03 09:31:41;;;;;;;14.82;10.45;;;;;;;;;;4900890;29;20048;-78
2022/01/03 09:34:08;;;;;;;15.48;9.73;;;;;;;;;;4895896;29;20044;-75
2022/01/03 09:36:35;;;;;;;14.52;8.95;;;;;;;;;;4886197;29;20033;-76
2022/01/03 09:39:04;;;;;;;13.77;10.15;;;;;;;;;;4886328;29;20788;-75
2022/01/03 09:41:34;;;;;;;18.92;12.32;;;;;;;;;;4886522;29;20207;-78
2022/01/03 09:44:11;;;;;;;18.30;11.70;;;;;;;;;;4882434;29;20047;-75
2022/01/03 09:46:37;;;;;;;;;;;;;;;;;;4885188;29;20095;-77
2022/01/03 09:49:08;;;;;;;16.60;11.43;;;;;;;;;;4881049;29;19978;-75
2022/01/03 09:51:35;;;;;;;16.33;11.05;;;;;;;;;;4885545;29;20040;-75
2022/01/03 09:54:04;;;;;;;15.02;10.13;;;;;;;;;;4881008;29;20099;-75
2022/01/03 09:56:31;;;;;;;15.02;10.45;;;;;;;;;;4897264;29;20035;-76
2022/01/03 09:58:57;;;;;;;15.07;10.43;;;;;;;;;;4883205;29;20039;-76
2022/01/03 10:01:26;;;;;;;18.98;12.10;;;;;;;;;;4883026;29;20059;-76
2022/01/03 10:03:54;;;;;;;17.33;10.50;;;;;;;;;;4875632;29;20035;-76
2022/01/03 10:06:24;;;;;;;16.85;11.65;;;;;;;;;;4880802;29;20052;-75
2022/01/03 10:08:54;;;;;;;17.13;12.45;;;;;;;;;;4880983;29;20040;-76
2022/01/03 10:11:26;;;;;;;14.73;10.13;;;;;;;;;;4870260;29;20036;-76
2022/01/03 10:13:56;;;;;;;15.45;10.50;;;;;;;;;;4878364;29;20096;-76
2022/01/03 10:16:24;;;;;;;14.90;9.93;;;;;;;;;;4886433;29;20625;-76
2022/01/03 10:18:50;;;;;;;15.93;10.73;;;;;;;;;;4898353;28;20814;-77
2022/01/03 10:21:39;;;;;;;14.55;10.48;;;;;;;;;;4890060;29;20028;-77
2022/01/03 10:24:05;;;;;;;;;;;;;;;;;;4888669;29;20127;-75
2022/01/03 10:26:36;;;;;;;16.95;12.10;;;;;;;;;;4891853;29;19914;-75
2022/01/03 10:29:22;;;;;;;16.58;11.48;;;;;;;;;;4889268;29;20040;-77
2022/01/03 10:31:51;;;;;;;15.82;10.63;;;;;;;;;;4901974;29;20045;-77
2022/01/03 10:34:19;;;;;;;17.30;10.43;;;;;;;;;;4889798;29;20798;-77
2022/01/03 10:36:47;;;;;;;15.55;10.10;;;;;;;;;;4891200;29;20031;-77
2022/01/03 10:39:23;;;;;;;15.85;11.60;;;;;;;;;;4906502;29;20032;-77
2022/01/03 10:41:54;;;;;;;16.80;11.17;;;;;;;;;;4895320;29;20030;-77
2022/01/03 10:44:37;;;;;;;17.20;12.00;;;;;;;;;;4887122;29;20291;-77
2022/01/03 10:47:08;;;;;;;15.10;10.73;;;;;;;;;;4899941;29;20048;-76
2022/01/03 10:49:37;;;;;;;15.25;10.80;;;;;;;;;;4883856;29;20036;-79
2022/01/03 10:52:18;;;;;;;15.43;10.38;;;;;;;;;;4833173;29;20099;-79
2022/01/03 10:55:09;;;;;;;19.83;11.77;;;;;;;;;;4766727;29;21180;-82
2022/01/03 10:57:54;;;;;;;16.10;10.75;;;;;;;;;;4757700;29;20048;-82
2022/01/03 11:00:34;;;;;;;16.95;11.45;;;;;;;;;;4758011;29;20892;-83
2022/01/03 11:10:43;;;;;;;16.50;10.48;;;;;;;;;;4850647;29;20204;-81
2022/01/03 11:11:52;;;;;;;17.95;11.63;;;;;;;;;;4757379;29;20127;-80
2022/01/03 11:14:42;;;;;;;17.90;10.98;;;;;;;;;;4741830;29;20052;-81
2022/01/03 11:17:27;;;;;;;14.75;10.93;;;;;;;;;;4751322;29;21389;-79
2022/01/03 11:19:58;;;;;;;15.02;10.50;;;;;;;;;;4751948;29;20048;-78
2022/01/03 11:22:41;;;;;;;16.17;11.88;;;;;;;;;;4783933;29;20775;-76
2022/01/03 11:25:10;;;;;;;17.63;12.48;;;;;;;;;;4776947;29;20040;-78
2022/01/03 11:27:43;;;;;;;17.02;11.65;;;;;;;;;;4760523;29;20098;-78
2022/01/03 11:30:13;;;;;;;16.98;11.68;;;;;;;;;;4746412;29;20044;-78
2022/01/03 11:32:43;;;;;;;16.30;11.75;;;;;;;;;;4743185;29;20043;-77
2022/01/03 11:35:11;;;;;;;15.93;10.18;;;;;;;;;;4742742;29;20043;-78
2022/01/03 11:37:40;;;;;;;13.88;9.10;;;;;;;;;;4756020;29;20045;-78
2022/01/03 11:40:16;;;;;;;15.32;10.85;;;;;;;;;;4778524;29;20663;-80
2022/01/03 11:42:43;;;;;;;13.73;9.45;;;;;;;;;;4760713;29;20028;-77
2022/01/03 11:45:11;;;;;;;13.23;8.23;;;;;;;;;;4733274;29;20040;-77
2022/01/03 11:47:43;;;;;;;12.23;7.40;;;;;;;;;;4749177;29;20078;-78
2022/01/03 11:50:09;;;;;;;11.98;7.70;;;;;;;;;;4746247;29;20047;-77
2022/01/03 11:52:48;;;;;;;12.20;8.18;;;;;;;;;;4758469;29;20050;-78
2022/01/03 11:55:21;;;;;;;11.55;7.60;;;;;;;;;;4769912;29;20051;-77
2022/01/03 11:58:26;;;;;;;11.38;7.53;;;;;;;;;;4773454;29;20092;-77
2022/01/03 12:03:57;;;;;;;13.55;8.20;;;;;;;;;;4779884;29;20095;-78
2022/01/03 12:06:33;;;;;;;12.27;7.97;;;;;;;;;;4794862;29;20039;-79
2022/01/03 12:09:11;;;;;;;13.57;8.18;;;;;;;;;;4805348;29;20032;-78
2022/01/03 12:11:54;;;;;;;14.27;7.90;;;;;;;;;;4793554;29;20086;-79
2022/01/03 12:14:23;;;;;;;11.48;7.03;;;;;;;;;;4764042;29;20791;-80
2022/01/03 12:17:05;;;;;;;13.27;7.13;;;;;;;;;;4772200;29;20102;-80
2022/01/03 12:19:54;;;;;;;12.32;6.90;;;;;;;;;;4754421;29;20039;-84
2022/01/03 12:22:23;;;;;;;12.90;7.25;;;;;;;;;;4762454;29;20170;-77
2022/01/03 12:24:56;;;;;;;9.90;6.32;;;;;;;;;;4774938;29;20063;-77
2022/01/03 12:27:29;;;;;;;11.70;6.63;;;;;;;;;;4816571;29;20043;-77
2022/01/03 12:29:58;;;;;;;9.70;6.25;;;;;;;;;;4778812;29;20054;-79
2022/01/03 12:32:26;;;;;;;11.68;7.65;;;;;;;;;;4757102;29;20032;-81
2022/01/03 12:35:19;;;;;;;12.13;7.65;;;;;;;;;;4771813;29;20361;-80
2022/01/03 12:38:10;;;;;;;10.60;6.85;;;;;;;;;;4765577;29;20035;-79
2022/01/03 12:40:48;;;;;;;12.10;6.93;;;;;;;;;;4765622;29;21054;-81
2022/01/03 12:43:16;;;;;;;12.38;8.10;;;;;;;;;;4766323;29;20028;-80
2022/01/03 12:45:47;;;;;;;13.48;7.72;;;;;;;;;;4750247;29;20086;-80
2022/01/03 12:48:24;;;;;;;14.57;9.55;;;;;;;;;;4765001;29;21282;-80
2022/01/03 12:51:02;;;;;;;11.73;7.55;;;;;;;;;;4751301;29;20043;-79
2022/01/03 12:53:32;;;;;;;13.85;7.95;;;;;;;;;;4752211;29;20043;-82
2022/01/03 12:56:06;;;;;;;10.93;6.45;;;;;;;;;;4767330;29;20044;-81
2022/01/03 12:58:35;;;;;;;9.88;5.95;;;;;;;;;;4767576;29;20051;-81
2022/01/03 13:01:03;;;;;;;10.43;6.55;;;;;;;;;;4770144;29;20042;-81
2022/01/03 13:03:50;;;;;;;10.43;6.85;;;;;;;;;;4751341;29;20052;-81
2022/01/03 13:06:27;;;;;;;11.80;7.85;;;;;;;;;;4747188;29;20044;-82
2022/01/03 13:08:57;;;;;;;11.30;7.05;;;;;;;;;;4721494;29;20050;-82
2022/01/03 13:11:32;;;;;;;9.90;5.45;;;;;;;;;;4734291;29;20056;-83
2022/01/03 13:14:14;;;;;;;9.40;5.43;;;;;;;;;;4739607;29;20143;-81
2022/01/03 13:16:44;;;;;;;9.70;5.47;;;;;;;;;;4727705;29;20052;-81
2022/01/03 13:19:31;;;;;;;9.93;5.10;;;;;;;;;;4745225;29;20112;-81
2022/01/03 13:22:08;;;;;;;9.20;4.90;;;;;;;;;;4740129;29;20467;-82
2022/01/03 13:24:47;;;;;;;12.10;5.72;;;;;;;;;;4748809;29;20709;-82
2022/01/03 13:27:22;;;;;;;11.05;5.60;;;;;;;;;;4736954;29;20218;-81
2022/01/03 13:29:51;;;;;;;9.07;5.03;;;;;;;;;;4743093;29;20056;-81
2022/01/03 13:32:25;;;;;;;10.95;5.18;;;;;;;;;;4732908;29;20056;-82
2022/01/03 13:34:56;;;;;;;9.95;5.38;;;;;;;;;;4743036;29;20050;-81
2022/01/03 13:37:26;;;;;;;10.38;5.78;;;;;;;;;;4746144;29;20967;-81
2022/01/03 13:39:54;;;;;;;9.40;4.93;;;;;;;;;;4743963;29;20474;-82
2022/01/03 13:49:11;;;;;;;11.32;5.68;;;;;;;;;;4733996;29;21268;-82
2022/01/03 13:50:45;;;;;;;;;;;;;;;;;;4733595;29;21373;-80
2022/01/03 13:53:13;;;;;;;9.50;5.30;;;;;;;;;;4736587;29;19974;-83
2022/01/03 13:55:41;;;;;;;11.07;4.97;;;;;;;;;;4745180;29;20413;-82
2022/01/03 13:58:15;;;;;;;10.90;4.70;;;;;;;;;;4759558;29;20040;-82
2022/01/03 14:00:55;;;;;;;8.68;4.68;;;;;;;;;;4758534;29;20031;-82
2022/01/03 14:03:29;;;;;;;8.93;5.32;;;;;;;;;;4752114;29;21518;-81
2022/01/03 14:06:22;;;;;;;9.30;4.60;;;;;;;;;;4744843;29;20032;-81
2022/01/03 14:08:53;;;;;;;9.00;4.90;;;;;;;;;;4758510;28;20427;-82
2022/01/03 14:11:21;;;;;;;10.18;4.50;;;;;;;;;;4743865;29;20036;-81
2022/01/03 14:13:49;;;;;;;10.63;5.72;;;;;;;;;;4738168;29;20095;-81
2022/01/03 14:16:19;;;;;;;9.70;4.80;;;;;;;;;;4744520;29;21282;-84
2022/01/03 14:18:55;;;;;;;8.82;4.88;;;;;;;;;;4737831;29;20393;-82
2022/01/03 14:21:42;;;;;;;8.93;4.70;;;;;;;;;;4753555;29;20036;-81
2022/01/03 14:24:10;;;;;;;9.50;4.90;;;;;;;;;;4748592;29;20040;-82
2022/01/03 14:26:38;;;;;;;9.80;5.13;;;;;;;;;;4740729;29;20040;-81
2022/01/03 14:29:13;;;;;;;8.77;4.82;;;;;;;;;;4733731;29;20103;-82
2022/01/03 14:31:44;;;;;;;9.23;4.90;;;;;;;;;;4734948;29;20036;-82
2022/01/03 14:34:17;;;;;;;10.43;5.60;;;;;;;;;;4771987;29;21094;-82
2022/01/03 14:36:43;;;;;;;10.23;5.00;;;;;;;;;;4751995;29;20023;-82
2022/01/03 14:39:10;;;;;;;10.40;5.65;;;;;;;;;;4742440;29;20059;-82
2022/01/03 14:41:37;;;;;;;9.30;4.90;;;;;;;;;;4736366;29;20038;-81
2022/01/03 14:44:13;;;;;;;9.00;4.40;;;;;;;;;;4763385;29;20090;-81
2022/01/03 14:46:44;;;;;;;9.57;5.10;;;;;;;;;;4765007;29;20134;-82
2022/01/03 14:49:22;;;;;;;9.93;4.82;;;;;;;;;;4746822;29;20055;-84
2022/01/03 14:51:50;;;;;;;9.45;4.90;;;;;;;;;;4754780;29;21398;-82
2022/01/03 14:54:19;;;;;;;9.38;5.05;;;;;;;;;;4732443;29;22685;-82
2022/01/03 14:56:48;;;;;;;9.10;4.97;;;;;;;;;;4746620;29;20435;-81
2022/01/03 14:59:30;;;;;;;27.02;20.38;;;;;;;;;;4737112;29;20036;-81
2022/01/03 15:01:58;;;;;;;13.20;7.72;;;;;;;;;;4723453;29;20050;-80
2022/01/03 15:04:29;;;;;;;11.40;6.72;;;;;;;;;;4727246;29;22067;-81
2022/01/03 15:07:15;;;;;;;11.43;7.13;;;;;;;;;;4750017;29;20162;-81
2022/01/03 15:09:47;;;;;;;11.65;6.88;;;;;;;;;;4744574;29;20059;-82
2022/01/03 15:12:16;;;;;;;10.82;6.15;;;;;;;;;;4756503;29;21475;-81